Time;durP1;ratioP1;P1;durP2;ratioP2;P2;SDS_P1;SDS_P2;PMS_P1;PMS_P2;Temp;Humidity;BMP_temperature;BMP_pressure;BME280_temperature;BME280_humidity;BME280_pressure;Samples;Min_cycle;Max_cycle;Signal;HPM_P1;HPM_P2
2022/03/01 08:05:01;;;;;;;55.95;28.77;;;;;;;;;;5109005;27;20441;-65
2022/03/01 08:07:28;;;;;;;64.10;32.30;;;;;;;;;;5108981;28;20035;-64
2022/03/01 08:09:54;;;;;;;61.80;30.42;;;;;;;;;;5108909;28;20055;-61
2022/03/01 08:12:20;;;;;;;51.95;26.33;;;;;;;;;;5108521;28;20027;-61
2022/03/01 08:14:46;;;;;;;64.70;32.35;;;;;;;;;;5108617;28;20040;-61
2022/03/01 08:17:12;;;;;;;54.22;28.27;;;;;;;;;;5108495;28;20031;-61
2022/03/01 08:19:38;;;;;;;48.35;25.50;;;;;;;;;;5108480;28;20058;-62
2022/03/01 08:22:04;;;;;;;51.88;27.35;;;;;;;;;;5108453;28;20024;-65
2022/03/01 08:24:30;;;;;;;46.40;25.33;;;;;;;;;;5107972;28;20060;-62
2022/03/01 08:26:57;;;;;;;40.08;24.33;;;;;;;;;;5108549;28;20024;-62
2022/03/01 08:29:23;;;;;;;45.40;26.05;;;;;;;;;;5108570;28;20027;-67
2022/03/01 08:31:49;;;;;;;49.80;29.17;;;;;;;;;;5108455;28;20035;-67
2022/03/01 08:34:15;;;;;;;58.95;33.17;;;;;;;;;;5108368;28;20138;-63
2022/03/01 08:36:41;;;;;;;44.83;27.27;;;;;;;;;;5108838;28;20059;-62
2022/03/01 08:39:07;;;;;;;36.67;22.50;;;;;;;;;;5108257;28;20024;-66
2022/03/01 08:41:33;;;;;;;39.83;24.48;;;;;;;;;;5107947;28;20030;-66
2022/03/01 08:43:59;;;;;;;48.15;28.27;;;;;;;;;;5105990;28;20075;-63
2022/03/01 08:46:25;;;;;;;49.28;29.08;;;;;;;;;;5107138;28;20028;-65
2022/03/01 08:48:53;;;;;;;45.88;27.70;;;;;;;;;;5107224;28;20027;-66
2022/03/01 08:51:21;;;;;;;43.08;27.42;;;;;;;;;;5107371;28;20305;-64
2022/03/01 08:53:47;;;;;;;44.75;26.40;;;;;;;;;;5107774;28;20032;-67
2022/03/01 08:56:15;;;;;;;43.13;27.00;;;;;;;;;;5107668;28;20107;-64
2022/03/01 08:58:41;;;;;;;45.45;27.92;;;;;;;;;;5107514;28;20107;-67
2022/03/01 09:01:07;;;;;;;53.03;30.38;;;;;;;;;;5107254;28;20024;-63
2022/03/01 09:03:33;;;;;;;50.35;30.63;;;;;;;;;;5104198;28;20052;-60
2022/03/01 09:06:00;;;;;;;68.22;38.00;;;;;;;;;;5086985;28;20028;-63
2022/03/01 09:08:26;;;;;;;58.33;35.15;;;;;;;;;;5103259;28;20016;-61
2022/03/01 09:10:52;;;;;;;63.22;35.70;;;;;;;;;;5107579;28;20303;-65
2022/03/01 09:13:18;;;;;;;63.10;37.03;;;;;;;;;;5105197;28;20437;-60
2022/03/01 09:15:44;;;;;;;70.80;44.25;;;;;;;;;;5077117;28;20024;-67
2022/03/01 09:18:11;;;;;;;60.78;38.33;;;;;;;;;;5073197;28;20021;-67
2022/03/01 09:20:37;;;;;;;58.78;34.67;;;;;;;;;;5073785;28;20021;-64
2022/03/01 09:23:03;;;;;;;50.90;32.70;;;;;;;;;;5082480;28;20032;-67
2022/03/01 09:25:29;;;;;;;53.03;33.10;;;;;;;;;;5093729;28;20051;-65
2022/03/01 09:27:55;;;;;;;53.00;32.53;;;;;;;;;;5093123;28;20081;-67
2022/03/01 09:30:21;;;;;;;54.50;32.38;;;;;;;;;;5093512;28;20020;-66
2022/03/01 09:32:47;;;;;;;51.50;33.63;;;;;;;;;;5093337;28;20032;-65
2022/03/01 09:35:14;;;;;;;53.63;32.80;;;;;;;;;;5093430;28;20055;-67
2022/03/01 09:37:41;;;;;;;48.20;30.10;;;;;;;;;;5093333;28;20020;-64
2022/03/01 09:40:08;;;;;;;48.45;30.63;;;;;;;;;;5093302;28;20536;-63
2022/03/01 09:42:34;;;;;;;47.15;29.80;;;;;;;;;;5093118;28;20050;-62
2022/03/01 09:45:00;;;;;;;51.70;31.27;;;;;;;;;;5092098;28;20036;-61
2022/03/01 09:47:26;;;;;;;45.22;29.95;;;;;;;;;;5091637;28;20119;-62
2022/03/01 09:49:53;;;;;;;45.90;28.02;;;;;;;;;;5091604;28;20042;-67
2022/03/01 09:52:20;;;;;;;45.15;27.85;;;;;;;;;;5091861;28;20084;-62
2022/03/01 09:54:46;;;;;;;42.00;27.27;;;;;;;;;;5090036;28;20032;-67
2022/03/01 09:57:14;;;;;;;41.22;25.27;;;;;;;;;;5091866;28;20028;-66
2022/03/01 09:59:40;;;;;;;43.47;23.58;;;;;;;;;;5091239;28;20099;-62
2022/03/01 10:02:06;;;;;;;42.85;25.17;;;;;;;;;;5091815;28;20024;-64
2022/03/01 10:04:32;;;;;;;51.25;31.08;;;;;;;;;;5091691;28;20170;-67
2022/03/01 10:06:58;;;;;;;41.55;26.45;;;;;;;;;;5092610;28;20027;-62
2022/03/01 10:09:26;;;;;;;40.15;24.75;;;;;;;;;;5092600;28;20020;-61
2022/03/01 10:11:52;;;;;;;30.30;19.88;;;;;;;;;;5092047;28;20466;-62
2022/03/01 10:14:32;;;;;;;32.63;20.17;;;;;;;;;;5092253;28;20028;-66
2022/03/01 10:16:58;;;;;;;38.53;23.80;;;;;;;;;;5090221;28;20040;-61
2022/03/01 10:19:25;;;;;;;40.92;23.52;;;;;;;;;;5092373;28;20019;-62
2022/03/01 10:22:02;;;;;;;43.30;26.52;;;;;;;;;;5091863;28;20020;-61
2022/03/01 10:24:29;;;;;;;35.45;23.10;;;;;;;;;;5091923;28;20032;-62
2022/03/01 10:26:59;;;;;;;35.58;20.52;;;;;;;;;;5087311;28;20573;-62
2022/03/01 10:29:28;;;;;;;47.40;25.92;;;;;;;;;;5092101;28;20082;-68
2022/03/01 10:31:59;;;;;;;50.88;29.50;;;;;;;;;;5089179;28;20376;-68
2022/03/01 10:34:27;;;;;;;55.08;26.63;;;;;;;;;;5091770;28;20028;-64
2022/03/01 10:36:53;;;;;;;55.15;23.40;;;;;;;;;;5091673;28;20024;-61
2022/03/01 10:39:20;;;;;;;35.47;18.95;;;;;;;;;;5092108;28;20434;-68
2022/03/01 10:41:48;;;;;;;26.52;16.60;;;;;;;;;;5091538;28;20430;-64
2022/03/01 10:44:20;;;;;;;21.65;13.80;;;;;;;;;;5091929;28;20078;-62
2022/03/01 10:46:49;;;;;;;28.53;16.53;;;;;;;;;;5091805;28;20081;-66
2022/03/01 10:49:16;;;;;;;33.85;19.30;;;;;;;;;;5085184;28;20269;-61
2022/03/01 10:51:48;;;;;;;40.35;21.40;;;;;;;;;;5087256;28;20016;-67
2022/03/01 10:54:37;;;;;;;26.27;16.55;;;;;;;;;;5091712;28;20103;-65
2022/03/01 10:57:05;;;;;;;28.63;16.35;;;;;;;;;;5089351;28;20047;-61
2022/03/01 10:59:32;;;;;;;20.88;12.18;;;;;;;;;;5072039;28;20028;-61
2022/03/01 11:01:58;;;;;;;19.13;13.38;;;;;;;;;;5088961;28;20050;-66
2022/03/01 11:04:25;;;;;;;21.73;13.95;;;;;;;;;;5089023;28;20052;-67
2022/03/01 11:06:53;;;;;;;21.83;14.15;;;;;;;;;;5089059;28;20024;-62
2022/03/01 11:09:26;;;;;;;19.48;12.18;;;;;;;;;;5089419;28;20113;-64
2022/03/01 11:26:21;;;;;;;24.75;15.90;;;;;;;;;;5089011;28;20039;-67
2022/03/01 11:28:54;;;;;;;37.70;21.13;;;;;;;;;;5088915;28;20123;-60
2022/03/01 11:31:22;;;;;;;30.80;18.25;;;;;;;;;;5088577;28;20032;-62
2022/03/01 11:33:58;;;;;;;26.55;14.82;;;;;;;;;;5081888;28;20068;-65
2022/03/01 11:36:29;;;;;;;21.33;13.80;;;;;;;;;;5070748;28;20036;-66
2022/03/01 11:38:55;;;;;;;19.45;12.98;;;;;;;;;;5070649;28;20027;-65
2022/03/01 11:41:22;;;;;;;24.25;13.10;;;;;;;;;;5069175;28;20442;-65
2022/03/01 11:43:57;;;;;;;20.25;12.75;;;;;;;;;;5070732;28;20078;-62
2022/03/01 11:46:23;;;;;;;21.05;13.73;;;;;;;;;;5070217;28;20020;-59
2022/03/01 11:48:57;;;;;;;20.70;14.52;;;;;;;;;;5070542;28;20102;-65
2022/03/01 11:51:34;;;;;;;20.30;14.55;;;;;;;;;;5069433;28;20108;-63
2022/03/01 11:54:08;;;;;;;19.65;13.68;;;;;;;;;;5069109;28;20046;-63
2022/03/01 11:56:35;;;;;;;21.63;13.48;;;;;;;;;;5073216;28;20128;-65
2022/03/01 11:59:08;;;;;;;20.95;13.65;;;;;;;;;;5079596;28;20024;-63
2022/03/01 12:01:35;;;;;;;17.13;12.13;;;;;;;;;;5070750;28;20040;-62
2022/03/01 12:04:02;;;;;;;21.23;13.48;;;;;;;;;;5070193;28;20139;-61
2022/03/01 12:06:30;;;;;;;19.50;12.88;;;;;;;;;;5070173;28;20047;-62
2022/03/01 12:08:57;;;;;;;27.15;16.00;;;;;;;;;;5070008;28;20033;-62
2022/03/01 12:11:33;;;;;;;32.35;18.23;;;;;;;;;;5070645;28;20090;-63
2022/03/01 12:14:07;;;;;;;25.90;15.75;;;;;;;;;;5070409;28;20402;-63
2022/03/01 12:16:33;;;;;;;18.40;12.63;;;;;;;;;;5068939;28;20035;-63
2022/03/01 12:19:05;;;;;;;33.22;17.33;;;;;;;;;;5070539;28;20127;-64
2022/03/01 12:21:32;;;;;;;37.88;20.15;;;;;;;;;;5070656;28;20017;-64
2022/03/01 12:23:58;;;;;;;28.38;16.35;;;;;;;;;;5070235;28;20028;-64
2022/03/01 12:26:26;;;;;;;27.65;17.27;;;;;;;;;;5070280;28;20056;-64
2022/03/01 12:28:52;;;;;;;22.38;14.77;;;;;;;;;;5070533;28;20486;-64
2022/03/01 12:31:25;;;;;;;21.90;14.25;;;;;;;;;;5070459;28;20024;-64
2022/03/01 12:33:59;;;;;;;22.52;15.38;;;;;;;;;;5070113;28;20044;-64
2022/03/01 12:36:32;;;;;;;24.13;15.35;;;;;;;;;;5080753;28;20107;-63
2022/03/01 12:38:59;;;;;;;;;;;;;;;;;;5090696;28;20107;-63
2022/03/01 12:41:25;;;;;;;24.27;15.65;;;;;;;;;;5090532;28;20387;-64
2022/03/01 12:43:52;;;;;;;18.45;11.65;;;;;;;;;;5089169;28;20043;-64
2022/03/01 12:46:18;;;;;;;19.58;13.55;;;;;;;;;;5089399;28;20486;-63
2022/03/01 12:48:44;;;;;;;21.08;13.85;;;;;;;;;;5088917;28;20483;-63
2022/03/01 12:51:12;;;;;;;29.63;16.95;;;;;;;;;;5090913;28;20047;-65
2022/03/01 12:53:38;;;;;;;19.40;12.10;;;;;;;;;;5092176;28;20464;-63
2022/03/01 12:56:04;;;;;;;16.17;11.88;;;;;;;;;;5092811;28;20028;-63
2022/03/01 12:58:30;;;;;;;17.85;12.05;;;;;;;;;;5093015;28;20020;-62
2022/03/01 13:01:07;;;;;;;22.90;14.13;;;;;;;;;;5092871;28;20388;-63
2022/03/01 13:03:33;;;;;;;18.35;12.63;;;;;;;;;;5092143;28;20073;-63
2022/03/01 13:06:05;;;;;;;21.63;12.57;;;;;;;;;;5093342;28;20395;-64
2022/03/01 13:08:35;;;;;;;18.17;11.95;;;;;;;;;;5093269;28;20486;-62
2022/03/01 13:11:01;;;;;;;16.23;11.77;;;;;;;;;;5093802;28;20391;-65
2022/03/01 13:13:27;;;;;;;18.08;12.00;;;;;;;;;;5093516;28;20048;-61
2022/03/01 13:15:53;;;;;;;19.65;11.95;;;;;;;;;;5093725;28;20031;-64
2022/03/01 13:18:26;;;;;;;17.70;11.95;;;;;;;;;;5093485;28;20112;-63
2022/03/01 13:20:53;;;;;;;20.77;12.13;;;;;;;;;;5092924;28;20054;-63
2022/03/01 13:23:27;;;;;;;20.73;12.57;;;;;;;;;;5093146;28;20035;-63
2022/03/01 13:25:53;;;;;;;19.92;12.27;;;;;;;;;;5093392;28;20016;-64
2022/03/01 13:28:29;;;;;;;18.63;12.25;;;;;;;;;;5093515;28;20051;-61
2022/03/01 13:30:55;;;;;;;22.05;13.23;;;;;;;;;;5093047;28;20406;-64
2022/03/01 13:33:26;;;;;;;16.38;11.55;;;;;;;;;;5091445;28;20039;-66
2022/03/01 13:35:52;;;;;;;19.67;12.13;;;;;;;;;;5092897;28;20043;-65
2022/03/01 13:38:19;;;;;;;19.27;12.15;;;;;;;;;;5093153;28;20024;-63
2022/03/01 13:40:46;;;;;;;16.20;11.25;;;;;;;;;;5093046;28;20024;-65
2022/03/01 13:43:16;;;;;;;17.38;12.07;;;;;;;;;;5092687;28;20039;-65
2022/03/01 13:45:43;;;;;;;19.02;12.05;;;;;;;;;;5093113;28;20029;-65
2022/03/01 13:48:09;;;;;;;20.98;11.30;;;;;;;;;;5093215;28;20037;-63
2022/03/01 13:50:35;;;;;;;20.05;10.90;;;;;;;;;;5092949;28;20012;-66
2022/03/01 13:53:08;;;;;;;17.10;11.85;;;;;;;;;;5091892;28;20031;-65
2022/03/01 13:55:36;;;;;;;20.58;12.27;;;;;;;;;;5092083;28;20016;-64
2022/03/01 13:58:03;;;;;;;21.48;12.52;;;;;;;;;;5091166;28;20039;-65
2022/03/01 14:00:32;;;;;;;22.25;12.43;;;;;;;;;;5091019;28;20043;-67
2022/03/01 14:03:11;;;;;;;21.50;12.52;;;;;;;;;;5090263;28;20086;-66
2022/03/01 14:05:39;;;;;;;15.95;10.85;;;;;;;;;;5092058;28;20036;-63
2022/03/01 14:08:05;;;;;;;18.55;11.35;;;;;;;;;;5091043;28;20020;-65
2022/03/01 14:10:32;;;;;;;17.20;11.23;;;;;;;;;;5091562;28;20016;-63
2022/03/01 14:13:02;;;;;;;22.80;12.10;;;;;;;;;;5091871;28;20077;-65
2022/03/01 14:15:41;;;;;;;19.42;13.40;;;;;;;;;;5091866;28;20043;-64
2022/03/01 14:18:08;;;;;;;18.65;12.82;;;;;;;;;;5092620;28;20111;-66
2022/03/01 14:20:34;;;;;;;20.77;13.43;;;;;;;;;;5090092;28;20054;-64
2022/03/01 14:23:01;;;;;;;22.02;13.63;;;;;;;;;;5085671;28;20066;-64
2022/03/01 14:25:27;;;;;;;24.58;12.98;;;;;;;;;;5091518;28;20059;-62
2022/03/01 14:27:54;;;;;;;21.90;13.48;;;;;;;;;;5091583;28;20035;-65
2022/03/01 14:30:20;;;;;;;30.15;14.15;;;;;;;;;;5088451;28;20032;-62
2022/03/01 14:32:47;;;;;;;22.65;13.77;;;;;;;;;;5097166;27;20062;-65
2022/03/01 14:35:13;;;;;;;24.65;14.70;;;;;;;;;;5143121;27;20023;-63
2022/03/01 14:37:39;;;;;;;24.35;15.07;;;;;;;;;;5142946;27;20398;-64
2022/03/01 14:40:06;;;;;;;23.98;15.07;;;;;;;;;;5141581;27;20527;-60
2022/03/01 14:42:32;;;;;;;26.58;16.13;;;;;;;;;;5143367;27;20063;-64
2022/03/01 14:44:58;;;;;;;24.27;17.00;;;;;;;;;;5142651;27;20042;-61
2022/03/01 14:47:24;;;;;;;25.55;17.38;;;;;;;;;;5141224;27;20035;-63
2022/03/01 14:49:51;;;;;;;29.05;18.05;;;;;;;;;;5143282;27;20027;-63
2022/03/01 14:52:17;;;;;;;28.98;18.58;;;;;;;;;;5142987;27;20200;-65
2022/03/01 14:54:43;;;;;;;34.80;18.73;;;;;;;;;;5141882;27;20453;-63
2022/03/01 14:57:09;;;;;;;33.05;19.98;;;;;;;;;;5133165;27;20247;-65
2022/03/01 14:59:35;;;;;;;34.95;21.13;;;;;;;;;;5111494;27;20035;-66
2022/03/01 15:02:02;;;;;;;36.10;21.02;;;;;;;;;;5130943;27;20027;-64
2022/03/01 15:04:28;;;;;;;34.60;21.42;;;;;;;;;;5130424;27;20054;-61
2022/03/01 15:06:54;;;;;;;38.72;22.67;;;;;;;;;;5131162;27;20356;-66
2022/03/01 15:09:20;;;;;;;40.25;21.35;;;;;;;;;;5131342;27;20053;-66
2022/03/01 15:11:46;;;;;;;34.75;21.85;;;;;;;;;;5131336;27;20066;-66
2022/03/01 15:14:12;;;;;;;33.60;20.58;;;;;;;;;;5131180;27;20023;-64
2022/03/01 15:16:38;;;;;;;34.13;20.50;;;;;;;;;;5131962;27;20024;-59
2022/03/01 15:19:05;;;;;;;30.13;19.35;;;;;;;;;;5132426;27;20054;-65
2022/03/01 15:21:31;;;;;;;33.22;21.70;;;;;;;;;;5131798;27;20027;-60
2022/03/01 15:23:58;;;;;;;33.45;20.60;;;;;;;;;;5132180;27;20117;-64
2022/03/01 15:26:28;;;;;;;36.05;21.17;;;;;;;;;;5132044;27;20019;-68
2022/03/01 15:28:54;;;;;;;34.70;21.83;;;;;;;;;;5131803;27;20375;-61
2022/03/01 15:31:20;;;;;;;33.30;21.00;;;;;;;;;;5131810;27;20020;-62
2022/03/01 15:33:47;;;;;;;35.17;21.08;;;;;;;;;;5131459;27;20178;-64
2022/03/01 15:36:13;;;;;;;36.60;21.98;;;;;;;;;;5131495;27;20018;-62
2022/03/01 15:38:39;;;;;;;37.10;22.92;;;;;;;;;;5131807;27;20126;-62
2022/03/01 15:41:06;;;;;;;36.05;22.23;;;;;;;;;;5131535;27;20094;-63
2022/03/01 15:43:32;;;;;;;40.28;23.70;;;;;;;;;;5131037;27;20027;-66
2022/03/01 15:45:58;;;;;;;39.50;23.58;;;;;;;;;;5131612;27;20027;-61
2022/03/01 15:48:24;;;;;;;40.00;23.05;;;;;;;;;;5130999;27;20410;-63
2022/03/01 15:50:51;;;;;;;40.97;24.70;;;;;;;;;;5131471;27;20485;-63
2022/03/01 15:53:17;;;;;;;40.53;24.80;;;;;;;;;;5131566;27;20023;-65
2022/03/01 15:55:44;;;;;;;41.83;24.58;;;;;;;;;;5131745;27;20027;-63
2022/03/01 15:58:11;;;;;;;45.40;25.85;;;;;;;;;;5131179;27;20035;-62
2022/03/01 16:00:37;;;;;;;44.20;25.90;;;;;;;;;;5131535;27;20470;-64
2022/03/01 16:03:03;;;;;;;42.92;25.13;;;;;;;;;;5130865;27;20061;-62
2022/03/01 16:05:29;;;;;;;45.38;26.00;;;;;;;;;;5112583;28;20042;-62
2022/03/01 16:07:55;;;;;;;39.75;23.98;;;;;;;;;;5131619;28;20068;-63
2022/03/01 16:10:22;;;;;;;45.20;26.65;;;;;;;;;;5131304;28;20135;-61
2022/03/01 16:12:48;;;;;;;44.60;26.85;;;;;;;;;;5131644;28;20027;-63
2022/03/01 16:15:14;;;;;;;44.95;25.38;;;;;;;;;;5131487;28;20053;-66
2022/03/01 16:17:41;;;;;;;43.70;25.88;;;;;;;;;;5131418;28;20031;-64
2022/03/01 16:20:08;;;;;;;44.80;26.13;;;;;;;;;;5112740;28;20023;-65
2022/03/01 16:22:34;;;;;;;47.10;26.60;;;;;;;;;;5131351;28;20099;-66
2022/03/01 16:25:02;;;;;;;49.72;28.77;;;;;;;;;;5131792;27;20035;-60
2022/03/01 16:27:28;;;;;;;48.42;27.60;;;;;;;;;;5134805;27;20084;-64
2022/03/01 16:29:55;;;;;;;49.65;27.75;;;;;;;;;;5135449;27;20080;-60
2022/03/01 16:32:21;;;;;;;47.05;26.52;;;;;;;;;;5134977;27;20051;-63
2022/03/01 16:34:47;;;;;;;48.08;27.05;;;;;;;;;;5134696;27;20027;-65
2022/03/01 16:37:13;;;;;;;48.67;27.75;;;;;;;;;;5134704;27;20035;-60
2022/03/01 16:39:42;;;;;;;46.88;27.33;;;;;;;;;;5134641;27;20094;-62
2022/03/01 16:42:09;;;;;;;49.95;28.38;;;;;;;;;;5134696;27;20019;-63
2022/03/01 16:44:35;;;;;;;50.63;27.90;;;;;;;;;;5134918;27;20031;-61
2022/03/01 16:47:04;;;;;;;53.08;29.00;;;;;;;;;;5134997;27;20023;-63
2022/03/01 16:49:31;;;;;;;50.15;27.60;;;;;;;;;;5134541;27;20023;-69
2022/03/01 16:51:58;;;;;;;49.47;28.52;;;;;;;;;;5115733;27;20482;-64
2022/03/01 16:54:24;;;;;;;49.90;28.15;;;;;;;;;;5134831;27;20035;-65
2022/03/01 16:56:52;;;;;;;53.00;29.98;;;;;;;;;;5134895;27;20216;-64
2022/03/01 16:59:18;;;;;;;54.45;29.33;;;;;;;;;;5135099;27;20027;-63
2022/03/01 17:01:45;;;;;;;59.33;32.72;;;;;;;;;;5134694;27;20019;-65
2022/03/01 17:04:11;;;;;;;54.03;30.70;;;;;;;;;;5135318;27;20275;-61
2022/03/01 17:06:38;;;;;;;54.40;30.48;;;;;;;;;;5155084;27;20504;-60
2022/03/01 17:09:07;;;;;;;55.47;31.13;;;;;;;;;;5155231;27;20062;-61
2022/03/01 17:11:34;;;;;;;55.42;31.42;;;;;;;;;;5155365;27;20023;-63
2022/03/01 17:14:00;;;;;;;56.90;31.50;;;;;;;;;;5155345;27;20022;-60
2022/03/01 17:16:29;;;;;;;56.85;32.00;;;;;;;;;;5155247;27;20030;-65
2022/03/01 17:18:55;;;;;;;55.63;31.77;;;;;;;;;;5155372;27;20026;-66
2022/03/01 17:21:21;;;;;;;58.92;33.17;;;;;;;;;;5154599;27;20031;-67
2022/03/01 17:23:47;;;;;;;56.45;31.85;;;;;;;;;;5154740;27;20066;-63
2022/03/01 17:26:13;;;;;;;58.88;32.92;;;;;;;;;;5140317;27;20016;-68
2022/03/01 17:28:39;;;;;;;61.85;33.10;;;;;;;;;;5133550;27;20126;-61
2022/03/01 17:31:05;;;;;;;58.33;33.22;;;;;;;;;;5133421;27;20445;-69
2022/03/01 17:33:32;;;;;;;53.60;31.67;;;;;;;;;;5133672;27;20042;-61
2022/03/01 17:35:58;;;;;;;51.35;30.20;;;;;;;;;;5132049;27;20094;-63
2022/03/01 17:38:24;;;;;;;49.97;28.83;;;;;;;;;;5133947;27;20019;-61
2022/03/01 17:40:50;;;;;;;48.95;29.17;;;;;;;;;;5134395;27;20545;-66
2022/03/01 17:43:16;;;;;;;53.80;30.80;;;;;;;;;;5133626;27;20089;-66
2022/03/01 17:45:42;;;;;;;54.45;30.08;;;;;;;;;;5133661;27;20031;-61
2022/03/01 17:48:08;;;;;;;52.25;31.00;;;;;;;;;;5134187;27;20109;-66
2022/03/01 17:50:35;;;;;;;56.70;31.17;;;;;;;;;;5133658;27;20466;-67
2022/03/01 17:53:01;;;;;;;50.65;29.33;;;;;;;;;;5133381;27;20045;-63
2022/03/01 17:55:27;;;;;;;52.28;29.50;;;;;;;;;;5132883;27;20027;-61
2022/03/01 17:57:53;;;;;;;47.90;27.95;;;;;;;;;;5131779;27;20015;-64
2022/03/01 18:00:19;;;;;;;45.90;26.13;;;;;;;;;;5132473;27;20031;-63
2022/03/01 18:02:46;;;;;;;43.60;26.52;;;;;;;;;;5131973;27;20023;-67
2022/03/01 18:05:12;;;;;;;45.53;27.20;;;;;;;;;;5132346;27;20035;-65
2022/03/01 18:07:38;;;;;;;44.15;25.48;;;;;;;;;;5132122;27;20024;-65
2022/03/01 18:10:05;;;;;;;46.22;26.35;;;;;;;;;;5131330;27;20040;-66
2022/03/01 18:12:31;;;;;;;41.83;25.08;;;;;;;;;;5132029;27;20026;-64
2022/03/01 18:14:58;;;;;;;41.45;24.38;;;;;;;;;;5132171;27;20027;-64
2022/03/01 18:17:24;;;;;;;43.90;26.38;;;;;;;;;;5133136;27;20031;-64
2022/03/01 18:19:50;;;;;;;47.15;26.65;;;;;;;;;;5131427;27;20027;-62
2022/03/01 18:22:16;;;;;;;45.10;26.08;;;;;;;;;;5131424;27;20027;-64
2022/03/01 18:24:42;;;;;;;44.83;25.75;;;;;;;;;;5132160;27;20034;-64
2022/03/01 18:27:08;;;;;;;44.10;25.90;;;;;;;;;;5132780;27;20061;-63
2022/03/01 18:29:34;;;;;;;45.08;25.83;;;;;;;;;;5132425;27;20026;-65
2022/03/01 18:32:00;;;;;;;40.60;25.17;;;;;;;;;;5131828;27;20027;-64
2022/03/01 18:34:27;;;;;;;41.05;25.95;;;;;;;;;;5132293;27;20062;-65
2022/03/01 18:36:53;;;;;;;40.15;24.63;;;;;;;;;;5113018;27;20073;-63
2022/03/01 18:39:21;;;;;;;42.70;25.13;;;;;;;;;;5127162;27;20054;-63
2022/03/01 18:41:47;;;;;;;41.72;25.50;;;;;;;;;;5129288;27;20023;-65
2022/03/01 18:44:13;;;;;;;45.90;25.90;;;;;;;;;;5130226;27;20115;-65
2022/03/01 18:46:39;;;;;;;42.28;25.33;;;;;;;;;;5131156;27;20023;-64
2022/03/01 18:49:05;;;;;;;40.95;25.05;;;;;;;;;;5130976;27;20382;-64
2022/03/01 18:51:32;;;;;;;42.22;25.02;;;;;;;;;;5130793;27;20524;-65
2022/03/01 18:54:00;;;;;;;40.45;24.23;;;;;;;;;;5130718;27;20027;-65
2022/03/01 18:56:26;;;;;;;42.55;25.38;;;;;;;;;;5130189;27;20014;-63
2022/03/01 18:58:54;;;;;;;40.28;24.10;;;;;;;;;;5130686;27;20019;-64
2022/03/01 19:01:20;;;;;;;39.17;24.42;;;;;;;;;;5131116;27;20606;-64
2022/03/01 19:03:46;;;;;;;37.55;23.80;;;;;;;;;;5131158;27;20058;-63
2022/03/01 19:06:16;;;;;;;41.25;24.15;;;;;;;;;;5130694;27;20034;-64
2022/03/01 19:08:51;;;;;;;41.28;25.05;;;;;;;;;;5129899;27;20106;-63
2022/03/01 19:11:17;;;;;;;39.92;23.92;;;;;;;;;;5129439;27;20046;-63
2022/03/01 19:13:44;;;;;;;38.40;22.95;;;;;;;;;;5131859;27;20031;-63
2022/03/01 19:16:10;;;;;;;39.67;24.05;;;;;;;;;;5132208;27;20077;-63
2022/03/01 19:18:36;;;;;;;41.83;24.02;;;;;;;;;;5132263;27;20055;-63
2022/03/01 19:21:03;;;;;;;38.20;23.20;;;;;;;;;;5131351;27;20066;-65
2022/03/01 19:23:29;;;;;;;36.70;23.40;;;;;;;;;;5134408;27;20034;-63
2022/03/01 19:25:55;;;;;;;39.00;22.75;;;;;;;;;;5150972;27;20026;-65
2022/03/01 19:28:21;;;;;;;41.20;24.48;;;;;;;;;;5152555;27;20026;-64
2022/03/01 19:30:47;;;;;;;39.25;23.42;;;;;;;;;;5152223;27;20392;-63
2022/03/01 19:33:14;;;;;;;40.75;25.00;;;;;;;;;;5152215;27;20026;-63
2022/03/01 19:35:40;;;;;;;39.78;23.08;;;;;;;;;;5152400;27;20029;-64
2022/03/01 19:38:06;;;;;;;41.15;22.80;;;;;;;;;;5152524;27;20487;-63
2022/03/01 19:40:33;;;;;;;38.05;22.45;;;;;;;;;;5152639;27;20049;-63
2022/03/01 19:42:59;;;;;;;35.83;21.83;;;;;;;;;;5157169;27;20015;-62
2022/03/01 19:45:25;;;;;;;36.38;23.00;;;;;;;;;;5152546;27;20560;-63
2022/03/01 19:47:52;;;;;;;36.40;22.48;;;;;;;;;;5152359;27;20268;-65
2022/03/01 19:50:19;;;;;;;40.60;23.42;;;;;;;;;;5152632;27;20022;-65
2022/03/01 19:52:46;;;;;;;39.35;23.30;;;;;;;;;;5152107;27;20021;-63
2022/03/01 19:55:13;;;;;;;41.15;23.73;;;;;;;;;;5149108;27;20046;-64
2022/03/01 19:57:40;;;;;;;39.97;24.15;;;;;;;;;;5151657;27;20030;-65
2022/03/01 20:00:08;;;;;;;41.60;24.70;;;;;;;;;;5142024;27;20545;-63
2022/03/01 20:02:34;;;;;;;40.08;24.77;;;;;;;;;;5131077;27;20027;-63
2022/03/01 20:05:00;;;;;;;40.75;24.23;;;;;;;;;;5131533;27;20051;-64
2022/03/01 20:07:26;;;;;;;44.05;25.02;;;;;;;;;;5131819;28;20016;-63
2022/03/01 20:09:52;;;;;;;43.88;25.25;;;;;;;;;;5131565;28;20030;-63
2022/03/01 20:12:18;;;;;;;46.25;25.80;;;;;;;;;;5131336;28;20023;-65
2022/03/01 20:14:46;;;;;;;41.40;25.80;;;;;;;;;;5130049;28;20026;-63
2022/03/01 20:17:13;;;;;;;41.08;25.45;;;;;;;;;;5129944;28;20019;-64
2022/03/01 20:19:39;;;;;;;45.90;27.17;;;;;;;;;;5122558;28;20375;-64
2022/03/01 20:22:08;;;;;;;42.75;25.63;;;;;;;;;;5128194;28;20020;-61
2022/03/01 20:24:34;;;;;;;42.40;25.85;;;;;;;;;;5125033;27;20039;-63
2022/03/01 20:27:00;;;;;;;43.47;25.77;;;;;;;;;;5129332;28;20020;-63
2022/03/01 20:29:27;;;;;;;44.47;26.25;;;;;;;;;;5128943;28;20019;-62
2022/03/01 20:31:53;;;;;;;45.50;25.48;;;;;;;;;;5129411;28;20020;-64
2022/03/01 20:34:19;;;;;;;44.45;24.98;;;;;;;;;;5129377;28;20023;-63
2022/03/01 20:36:45;;;;;;;44.70;25.00;;;;;;;;;;5130435;28;20034;-62
2022/03/01 20:39:11;;;;;;;43.58;24.65;;;;;;;;;;5129838;28;20022;-64
2022/03/01 20:41:39;;;;;;;38.08;23.42;;;;;;;;;;5129729;28;20031;-64
2022/03/01 20:44:05;;;;;;;42.65;25.75;;;;;;;;;;5132967;28;20039;-64
2022/03/01 20:46:31;;;;;;;45.72;27.00;;;;;;;;;;5110372;28;21216;-64
2022/03/01 20:48:57;;;;;;;45.40;27.45;;;;;;;;;;5128221;28;20023;-62
2022/03/01 20:51:23;;;;;;;43.03;25.48;;;;;;;;;;5130942;28;20165;-63
2022/03/01 20:53:50;;;;;;;39.47;24.92;;;;;;;;;;5130901;28;20416;-64
2022/03/01 20:56:16;;;;;;;41.58;25.23;;;;;;;;;;5130935;28;20027;-63
2022/03/01 20:58:43;;;;;;;41.55;24.15;;;;;;;;;;5120357;28;20458;-62
2022/03/01 21:01:09;;;;;;;40.83;24.20;;;;;;;;;;5128923;28;20027;-64
2022/03/01 21:03:35;;;;;;;40.85;23.98;;;;;;;;;;5129775;28;20043;-63
2022/03/01 21:06:01;;;;;;;39.45;24.02;;;;;;;;;;5128303;28;20106;-64
2022/03/01 21:08:27;;;;;;;41.45;23.90;;;;;;;;;;5130066;28;20016;-64
2022/03/01 21:10:53;;;;;;;38.50;23.05;;;;;;;;;;5130483;27;20062;-63
2022/03/01 21:13:19;;;;;;;43.83;24.77;;;;;;;;;;5110999;28;20047;-64
2022/03/01 21:15:46;;;;;;;39.15;23.80;;;;;;;;;;5113476;28;20459;-64
2022/03/01 21:18:12;;;;;;;44.85;24.40;;;;;;;;;;5116626;27;20022;-64
2022/03/01 21:20:39;;;;;;;41.47;24.02;;;;;;;;;;5133021;27;20022;-63
2022/03/01 21:23:06;;;;;;;39.63;24.27;;;;;;;;;;5132540;27;20076;-62
2022/03/01 21:25:33;;;;;;;40.03;24.67;;;;;;;;;;5132869;27;20394;-64
2022/03/01 21:28:00;;;;;;;39.28;23.02;;;;;;;;;;5132671;27;20019;-64
2022/03/01 21:30:26;;;;;;;38.42;23.63;;;;;;;;;;5132799;27;20015;-65
2022/03/01 21:32:53;;;;;;;38.88;23.10;;;;;;;;;;5132037;27;20069;-64
2022/03/01 21:35:20;;;;;;;38.75;23.90;;;;;;;;;;5132315;27;20026;-64
2022/03/01 21:37:46;;;;;;;43.22;24.50;;;;;;;;;;5131953;27;20371;-64
2022/03/01 21:40:13;;;;;;;40.42;24.35;;;;;;;;;;5131757;27;20026;-63
2022/03/01 21:42:39;;;;;;;42.90;25.02;;;;;;;;;;5132243;27;20020;-64
2022/03/01 21:45:06;;;;;;;43.00;25.55;;;;;;;;;;5131899;27;20071;-63
2022/03/01 21:47:33;;;;;;;41.20;24.25;;;;;;;;;;5131332;27;20069;-64
2022/03/01 21:49:59;;;;;;;37.78;23.23;;;;;;;;;;5132938;27;20461;-64
2022/03/01 21:52:25;;;;;;;40.50;25.00;;;;;;;;;;5131489;27;20083;-64
2022/03/01 21:54:51;;;;;;;38.00;23.98;;;;;;;;;;5131672;27;20027;-63
2022/03/01 21:57:17;;;;;;;40.53;24.05;;;;;;;;;;5131541;27;20410;-63
2022/03/01 21:59:43;;;;;;;40.78;24.15;;;;;;;;;;5130538;27;20208;-63
2022/03/01 22:02:10;;;;;;;44.75;24.45;;;;;;;;;;5131510;27;20030;-65
2022/03/01 22:04:36;;;;;;;40.35;24.33;;;;;;;;;;5131703;27;20110;-65
2022/03/01 22:07:02;;;;;;;45.20;23.40;;;;;;;;;;5131390;27;20019;-66
2022/03/01 22:09:28;;;;;;;49.78;25.48;;;;;;;;;;5131649;27;20394;-63
2022/03/01 22:11:54;;;;;;;53.45;25.80;;;;;;;;;;5130214;27;20451;-64
2022/03/01 22:14:20;;;;;;;45.63;25.23;;;;;;;;;;5131795;27;20031;-63
2022/03/01 22:16:46;;;;;;;51.95;28.45;;;;;;;;;;5131543;27;20020;-64
2022/03/01 22:19:12;;;;;;;51.40;27.33;;;;;;;;;;5132563;27;20065;-64
2022/03/01 22:21:38;;;;;;;52.55;29.48;;;;;;;;;;5133306;27;20033;-63
2022/03/01 22:24:05;;;;;;;49.50;28.83;;;;;;;;;;5132887;27;20039;-66
2022/03/01 22:26:31;;;;;;;49.30;28.75;;;;;;;;;;5133347;27;20037;-63
2022/03/01 22:28:58;;;;;;;48.97;26.92;;;;;;;;;;5133514;27;20023;-64
2022/03/01 22:31:24;;;;;;;53.88;28.75;;;;;;;;;;5133406;27;20101;-63
2022/03/01 22:33:50;;;;;;;53.90;28.77;;;;;;;;;;5133268;27;20023;-62
2022/03/01 22:36:16;;;;;;;46.97;28.40;;;;;;;;;;5133271;27;20023;-64